createdAt,value
2018-03-28T00:00:06.840Z,11.10
2018-03-28T00:01:06.642Z,11.40
2018-03-28T00:02:59.902Z,11.60
2018-03-28T00:03:59.832Z,10.80
2018-03-28T00:05:53.113Z,10.50
2018-03-28T00:06:53.027Z,11.40
2018-03-28T00:08:46.305Z,11.40
2018-03-28T00:09:46.216Z,10.90
2018-03-28T00:11:39.477Z,11.70
2018-03-28T00:12:39.407Z,11.50
2018-03-28T00:14:32.686Z,11.50
2018-03-28T00:15:32.601Z,11.80
2018-03-28T00:17:25.851Z,11.60
2018-03-28T00:18:25.780Z,12.00
2018-03-28T00:20:19.062Z,11.90
2018-03-28T00:21:18.972Z,11.80
2018-03-28T00:23:12.344Z,11.90
2018-03-28T00:24:12.165Z,11.40
2018-03-28T00:26:05.444Z,11.60
2018-03-28T00:27:05.358Z,11.80
2018-03-28T00:28:58.633Z,11.70
2018-03-28T00:29:58.547Z,12.10
2018-03-28T00:31:51.919Z,12.10
2018-03-28T00:32:51.739Z,11.40
2018-03-28T00:34:45.018Z,12.80
2018-03-28T00:35:44.932Z,13.10
2018-03-28T00:37:38.195Z,13.70
2018-03-28T00:38:38.122Z,13.50
2018-03-28T00:40:31.403Z,12.90
2018-03-28T00:41:31.316Z,12.80
2018-03-28T00:43:24.578Z,13.80
2018-03-28T00:44:24.512Z,14.20
2018-03-28T00:46:18.894Z,13.80
2018-03-28T00:47:18.697Z,13.00
2018-03-28T00:49:12.087Z,13.40
2018-03-28T00:50:11.891Z,12.70
2018-03-28T00:52:05.155Z,13.50
2018-03-28T00:53:05.080Z,14.00
2018-03-28T00:54:58.469Z,13.90
2018-03-28T00:55:58.271Z,13.90
2018-03-28T00:57:51.537Z,14.80
2018-03-28T00:58:51.464Z,14.90
2018-03-28T01:00:44.752Z,14.70
2018-03-28T01:01:44.658Z,14.80
2018-03-28T01:03:37.918Z,15.90
2018-03-28T01:04:37.847Z,16.50
2018-03-28T01:06:31.117Z,16.50
2018-03-28T01:07:31.029Z,16.50
2018-03-28T01:09:24.309Z,17.60
2018-03-28T01:10:24.220Z,17.10
2018-03-28T01:12:17.483Z,16.50
2018-03-28T01:13:17.415Z,16.60
2018-03-28T01:15:10.802Z,18.80
2018-03-28T01:16:10.605Z,18.30
2018-03-28T01:18:03.974Z,19.40
2018-03-28T01:19:03.791Z,18.70
2018-03-28T01:20:57.078Z,18.20
2018-03-28T01:21:56.985Z,19.30
2018-03-28T01:23:50.247Z,19.60
2018-03-28T01:24:50.175Z,19.30
2018-03-28T01:26:43.564Z,19.30
2018-03-28T01:27:43.361Z,18.40
2018-03-28T01:29:36.639Z,17.60
2018-03-28T01:30:36.551Z,17.00
2018-03-28T01:32:29.812Z,16.70
2018-03-28T01:33:29.744Z,16.30
2018-03-28T01:35:23.022Z,16.30
2018-03-28T01:36:22.933Z,17.30
2018-03-28T01:38:16.194Z,15.60
2018-03-28T01:39:16.125Z,15.30
2018-03-28T01:41:09.407Z,16.30
2018-03-28T01:42:09.317Z,17.10
2018-03-28T01:44:02.580Z,15.90
2018-03-28T01:45:02.510Z,16.70
2018-03-28T01:46:55.901Z,16.20
2018-03-28T01:47:55.694Z,16.20
2018-03-28T01:49:48.974Z,16.50
2018-03-28T01:50:48.885Z,15.50
2018-03-28T01:52:42.149Z,16.40
2018-03-28T01:53:42.080Z,16.10
2018-03-28T01:55:35.358Z,16.00
2018-03-28T01:56:35.271Z,16.40
2018-03-28T01:58:28.532Z,16.50
2018-03-28T01:59:28.464Z,15.40
2018-03-28T02:01:21.748Z,16.40
2018-03-28T02:02:21.657Z,17.10
2018-03-28T02:04:14.917Z,17.20
2018-03-28T02:05:14.851Z,16.00
2018-03-28T02:07:08.123Z,16.60
2018-03-28T02:08:08.037Z,16.90
2018-03-28T02:10:01.324Z,17.00
2018-03-28T02:11:01.245Z,16.70
2018-03-28T02:12:54.500Z,17.20
2018-03-28T02:13:54.429Z,17.30
2018-03-28T02:15:47.711Z,17.10
2018-03-28T02:16:47.622Z,17.90
2018-03-28T02:18:40.994Z,17.40
2018-03-28T02:19:40.813Z,16.70
2018-03-28T02:21:34.203Z,17.00
2018-03-28T02:22:34.007Z,17.10
2018-03-28T02:24:27.308Z,16.80
2018-03-28T02:25:27.237Z,17.50
2018-03-28T02:27:20.509Z,17.00
2018-03-28T02:28:20.422Z,17.30
2018-03-28T02:30:13.702Z,17.70
2018-03-28T02:31:13.613Z,17.70
2018-03-28T02:33:06.877Z,18.00
2018-03-28T02:34:06.817Z,17.30
2018-03-28T02:36:00.089Z,17.30
2018-03-28T02:37:00.002Z,17.90
2018-03-28T02:38:53.306Z,16.90
2018-03-28T02:39:53.240Z,17.70
2018-03-28T02:41:46.523Z,17.40
2018-03-28T02:42:46.434Z,18.00
2018-03-28T02:44:40.731Z,17.40
2018-03-28T02:45:40.627Z,16.80
2018-03-28T02:47:33.910Z,17.20
2018-03-28T02:48:33.823Z,17.80
2018-03-28T02:50:27.211Z,17.90
2018-03-28T02:51:27.017Z,17.80
2018-03-28T02:53:20.277Z,17.70
2018-03-28T02:54:20.207Z,17.70
2018-03-28T02:56:13.485Z,17.50
2018-03-28T02:57:13.399Z,17.70
2018-03-28T02:59:06.662Z,18.00
2018-03-28T03:00:06.605Z,18.60
2018-03-28T03:01:59.871Z,18.00
2018-03-28T03:02:59.782Z,19.10
2018-03-28T03:04:53.185Z,19.60
2018-03-28T03:05:52.974Z,19.10
2018-03-28T03:07:46.238Z,20.60
2018-03-28T03:08:46.170Z,19.90
2018-03-28T03:10:39.450Z,19.30
2018-03-28T03:11:39.360Z,18.70
2018-03-28T03:13:32.622Z,20.60
2018-03-28T03:14:32.552Z,20.20
2018-03-28T03:16:25.846Z,19.80
2018-03-28T03:17:25.748Z,20.30
2018-03-28T03:19:19.013Z,20.30
2018-03-28T03:20:18.943Z,20.70
2018-03-28T03:22:12.222Z,20.10
2018-03-28T03:23:12.135Z,20.70
2018-03-28T03:25:05.528Z,21.80
2018-03-28T03:26:05.328Z,22.10
2018-03-28T03:27:58.590Z,20.90
2018-03-28T03:28:58.524Z,21.00
2018-03-28T03:30:51.912Z,21.00
2018-03-28T03:31:51.714Z,20.80
2018-03-28T03:33:44.979Z,22.30
2018-03-28T03:34:44.907Z,22.80
2018-03-28T03:36:38.179Z,21.60
2018-03-28T03:37:38.093Z,22.10
2018-03-28T03:39:31.462Z,23.00
2018-03-28T03:40:31.285Z,22.70
2018-03-28T03:42:24.564Z,22.80
2018-03-28T03:43:24.477Z,23.00
2018-03-28T03:45:17.778Z,22.80
2018-03-28T03:46:17.673Z,23.40
2018-03-28T03:48:11.044Z,23.40
2018-03-28T03:49:10.864Z,23.10
2018-03-28T03:51:04.253Z,23.90
2018-03-28T03:52:04.057Z,26.00
2018-03-28T03:53:57.322Z,25.80
2018-03-28T03:54:57.256Z,25.00
2018-03-28T03:56:50.524Z,26.50
2018-03-28T03:57:50.442Z,25.90
2018-03-28T03:59:43.704Z,26.50
2018-03-28T04:00:43.630Z,25.80
2018-03-28T04:02:37.021Z,27.50
2018-03-28T04:03:36.825Z,26.70
2018-03-28T04:05:30.225Z,26.30
2018-03-28T04:06:30.016Z,26.60
2018-03-28T04:08:23.309Z,27.10
2018-03-28T04:09:23.238Z,27.60
2018-03-28T04:11:16.628Z,26.90
2018-03-28T04:12:16.434Z,27.40
2018-03-28T04:14:09.692Z,28.10
2018-03-28T04:15:09.625Z,27.60
2018-03-28T04:17:03.016Z,26.80
2018-03-28T04:18:02.811Z,28.70
2018-03-28T04:19:56.182Z,29.20
2018-03-28T04:20:56.003Z,29.30
2018-03-28T04:22:49.331Z,29.90
2018-03-28T04:23:49.239Z,29.30
2018-03-28T04:25:42.631Z,29.90
2018-03-28T04:26:42.435Z,28.70
2018-03-28T04:28:35.697Z,29.40
2018-03-28T04:29:35.626Z,30.00
2018-03-28T04:31:29.018Z,30.50
2018-03-28T04:32:28.823Z,30.30
2018-03-28T04:34:22.087Z,30.10
2018-03-28T04:35:22.022Z,30.10
2018-03-28T04:37:15.331Z,30.40
2018-03-28T04:38:15.238Z,30.20
2018-03-28T04:40:08.615Z,31.40
2018-03-28T04:41:08.438Z,30.60
2018-03-28T04:43:01.824Z,31.20
2018-03-28T04:44:01.629Z,30.90
2018-03-28T04:45:54.909Z,30.50
2018-03-28T04:46:54.820Z,31.70
2018-03-28T04:48:48.194Z,32.90
2018-03-28T04:49:48.014Z,31.50
2018-03-28T04:51:41.326Z,32.10
2018-03-28T04:52:41.239Z,31.10
2018-03-28T04:54:34.612Z,33.60
2018-03-28T04:55:34.432Z,32.10
2018-03-28T04:57:27.824Z,32.10
2018-03-28T04:58:27.618Z,32.20
2018-03-28T05:00:20.989Z,31.20
2018-03-28T05:01:20.811Z,31.30
2018-03-28T05:03:14.204Z,32.70
2018-03-28T05:04:14.066Z,32.90
2018-03-28T05:06:08.290Z,33.20
2018-03-28T05:07:08.200Z,33.30
2018-03-28T05:09:01.463Z,32.40
2018-03-28T05:10:01.403Z,33.10
2018-03-28T05:11:54.798Z,33.70
2018-03-28T05:12:54.586Z,33.90
2018-03-28T05:14:47.849Z,33.70
2018-03-28T05:15:47.854Z,33.70
2018-03-28T05:17:41.061Z,32.60
2018-03-28T05:18:41.286Z,33.00
2018-03-28T05:20:34.226Z,31.80
2018-03-28T05:21:34.157Z,34.20
2018-03-28T05:23:27.430Z,31.90
2018-03-28T05:24:27.342Z,30.90
2018-03-28T05:26:20.731Z,31.10
2018-03-28T05:27:20.528Z,31.20
2018-03-28T05:29:13.902Z,30.60
2018-03-28T05:30:13.714Z,30.80
2018-03-28T05:32:07.109Z,31.40
2018-03-28T05:33:06.947Z,30.60
2018-03-28T05:35:00.318Z,31.30
2018-03-28T05:36:00.192Z,31.00
2018-03-28T05:37:53.414Z,32.50
2018-03-28T05:38:53.324Z,31.20
2018-03-28T05:40:46.695Z,32.70
2018-03-28T05:41:46.538Z,32.20
2018-03-28T05:43:39.929Z,33.10
2018-03-28T05:44:39.720Z,33.50
2018-03-28T05:46:33.002Z,33.30
2018-03-28T05:47:32.910Z,33.30
2018-03-28T05:49:26.160Z,32.70
2018-03-28T05:50:26.090Z,32.80
2018-03-28T05:52:19.370Z,32.00
2018-03-28T05:53:19.285Z,33.90
2018-03-28T05:55:12.549Z,33.50
2018-03-28T05:56:12.476Z,33.60
2018-03-28T05:58:05.760Z,33.90
2018-03-28T05:59:05.673Z,33.40
2018-03-28T06:00:59.048Z,33.20
2018-03-28T06:01:58.878Z,34.50
2018-03-28T06:03:52.264Z,34.50
2018-03-28T06:04:52.060Z,35.50
2018-03-28T06:06:45.341Z,34.90
2018-03-28T06:07:45.255Z,34.80
2018-03-28T06:09:38.520Z,35.00
2018-03-28T06:10:38.446Z,35.50
2018-03-28T06:12:31.729Z,35.50
2018-03-28T06:13:31.641Z,34.10
2018-03-28T06:15:24.904Z,36.30
2018-03-28T06:16:24.834Z,34.80
2018-03-28T06:18:18.120Z,35.40
2018-03-28T06:19:18.073Z,35.80
2018-03-28T06:21:11.401Z,36.20
2018-03-28T06:22:11.240Z,34.40
2018-03-28T06:24:04.580Z,34.80
2018-03-28T06:25:04.447Z,34.90
2018-03-28T06:26:57.823Z,34.90
2018-03-28T06:27:57.629Z,35.60
2018-03-28T06:29:50.888Z,35.10
2018-03-28T06:30:50.821Z,34.20
2018-03-28T06:32:44.210Z,32.50
2018-03-28T06:33:44.014Z,33.40
2018-03-28T06:35:37.428Z,31.40
2018-03-28T06:36:37.238Z,32.60
2018-03-28T06:38:30.520Z,32.40
2018-03-28T06:39:30.432Z,31.20
2018-03-28T06:41:23.806Z,32.90
2018-03-28T06:42:23.628Z,32.90
2018-03-28T06:44:16.908Z,32.10
2018-03-28T06:45:16.819Z,33.80
2018-03-28T06:47:10.210Z,32.30
2018-03-28T06:48:10.015Z,33.50
2018-03-28T06:50:03.325Z,34.70
2018-03-28T06:51:03.242Z,34.30
2018-03-28T06:52:56.629Z,34.90
2018-03-28T06:53:56.433Z,35.40
2018-03-28T06:55:49.698Z,35.50
2018-03-28T06:56:49.628Z,36.00
2018-03-28T06:58:42.913Z,37.20
2018-03-28T06:59:42.846Z,39.70
2018-03-28T07:01:36.085Z,38.00
2018-03-28T07:02:36.016Z,38.30
2018-03-28T07:04:29.406Z,37.90
2018-03-28T07:05:29.240Z,36.30
2018-03-28T07:07:22.519Z,37.60
2018-03-28T07:08:22.430Z,37.90
2018-03-28T07:10:15.803Z,35.60
2018-03-28T07:11:15.627Z,36.10
2018-03-28T07:13:08.897Z,35.30
2018-03-28T07:14:08.809Z,37.20
2018-03-28T07:16:02.184Z,32.20
2018-03-28T07:17:02.003Z,32.60
2018-03-28T07:18:55.329Z,31.50
2018-03-28T07:19:55.243Z,30.40
2018-03-28T07:21:48.505Z,31.00
2018-03-28T07:22:48.435Z,30.90
2018-03-28T07:24:41.707Z,29.60
2018-03-28T07:25:41.619Z,29.50
2018-03-28T07:27:34.892Z,30.20
2018-03-28T07:28:34.805Z,29.20
2018-03-28T07:30:28.177Z,30.50
2018-03-28T07:31:28.001Z,30.00
2018-03-28T07:33:21.330Z,31.20
2018-03-28T07:34:21.248Z,31.30
2018-03-28T07:36:14.505Z,30.60
2018-03-28T07:37:14.435Z,30.00
2018-03-28T07:39:07.826Z,29.30
2018-03-28T07:40:07.619Z,30.70
2018-03-28T07:42:00.885Z,29.10
2018-03-28T07:43:00.817Z,29.70
2018-03-28T07:44:54.097Z,29.20
2018-03-28T07:45:54.010Z,28.30
2018-03-28T07:47:47.327Z,27.50
2018-03-28T07:48:47.242Z,26.00
2018-03-28T07:50:40.504Z,26.00
2018-03-28T07:51:40.436Z,26.40
2018-03-28T07:53:33.719Z,25.90
2018-03-28T07:54:33.632Z,26.50
2018-03-28T07:56:26.894Z,26.00
2018-03-28T07:57:26.825Z,26.00
2018-03-28T07:59:20.109Z,27.00
2018-03-28T08:00:20.024Z,25.70
2018-03-28T08:02:13.311Z,23.60
2018-03-28T08:03:13.241Z,24.10
2018-03-28T08:05:06.632Z,22.50
2018-03-28T08:06:06.427Z,23.80
2018-03-28T08:07:59.818Z,24.90
2018-03-28T08:08:59.621Z,24.20
2018-03-28T08:10:52.995Z,24.30
2018-03-28T08:11:52.817Z,23.60
2018-03-28T08:13:46.211Z,22.10
2018-03-28T08:14:46.012Z,22.00
2018-03-28T08:16:39.302Z,22.20
2018-03-28T08:17:39.232Z,22.30
2018-03-28T08:19:32.623Z,22.10
2018-03-28T08:20:32.447Z,22.70
2018-03-28T08:22:26.821Z,21.70
2018-03-28T08:23:26.632Z,21.10
2018-03-28T08:25:19.926Z,21.40
2018-03-28T08:26:19.841Z,22.40
2018-03-28T08:28:13.122Z,21.40
2018-03-28T08:29:13.035Z,21.20
2018-03-28T08:31:06.410Z,21.50
2018-03-28T08:32:06.233Z,21.30
2018-03-28T08:33:59.628Z,20.80
2018-03-28T08:34:59.432Z,20.80
2018-03-28T08:36:52.689Z,21.00
2018-03-28T08:37:52.620Z,20.20
2018-03-28T08:39:45.905Z,21.60
2018-03-28T08:40:45.818Z,21.40
2018-03-28T08:42:39.085Z,21.10
2018-03-28T08:43:39.016Z,20.40
2018-03-28T08:45:32.411Z,20.90
2018-03-28T08:46:32.217Z,21.40
2018-03-28T08:48:25.501Z,19.30
2018-03-28T08:49:25.418Z,19.40
2018-03-28T08:51:18.792Z,20.60
2018-03-28T08:52:18.658Z,21.70
2018-03-28T08:54:11.902Z,20.90
2018-03-28T08:55:11.820Z,20.60
2018-03-28T08:57:05.192Z,19.90
2018-03-28T08:58:05.008Z,20.00
2018-03-28T08:59:58.402Z,20.00
2018-03-28T09:00:58.198Z,20.00
2018-03-28T09:02:51.468Z,20.00
2018-03-28T09:03:51.401Z,21.60
2018-03-28T09:05:44.686Z,20.40
2018-03-28T09:06:44.602Z,20.60
2018-03-28T09:08:37.889Z,19.10
2018-03-28T09:09:37.805Z,19.80
2018-03-28T09:11:32.202Z,20.00
2018-03-28T09:12:32.004Z,18.80
2018-03-28T09:14:25.403Z,20.10
2018-03-28T09:15:25.249Z,19.30
2018-03-28T09:17:18.512Z,19.90
2018-03-28T09:18:18.445Z,19.30
2018-03-28T09:20:11.746Z,18.50
2018-03-28T09:21:11.650Z,19.20
2018-03-28T09:23:05.028Z,17.90
2018-03-28T09:24:04.849Z,17.80
2018-03-28T09:25:58.410Z,18.30
2018-03-28T09:26:58.110Z,18.40
2018-03-28T09:28:51.348Z,18.60
2018-03-28T09:29:51.259Z,18.00
2018-03-28T09:31:45.647Z,18.90
2018-03-28T09:32:45.311Z,18.30
2018-03-28T09:34:38.602Z,17.20
2018-03-28T09:35:38.526Z,17.00
2018-03-28T09:37:31.788Z,18.50
2018-03-28T09:38:31.735Z,18.70
2018-03-28T09:40:24.987Z,16.80
2018-03-28T09:41:24.904Z,17.70
2018-03-28T09:43:18.280Z,17.60
2018-03-28T09:44:18.095Z,17.20
2018-03-28T09:46:11.372Z,17.70
2018-03-28T09:47:11.290Z,17.90
2018-03-28T09:49:04.566Z,17.90
2018-03-28T09:50:04.484Z,18.50
2018-03-28T09:51:57.930Z,18.30
2018-03-28T09:52:57.673Z,17.10
2018-03-28T09:54:50.952Z,16.70
2018-03-28T09:55:50.875Z,15.80
2018-03-28T09:57:44.126Z,17.30
2018-03-28T09:58:44.061Z,18.20
2018-03-28T10:00:37.337Z,16.70
2018-03-28T10:01:37.258Z,17.50
2018-03-28T10:03:30.632Z,16.70
2018-03-28T10:04:30.448Z,17.30
2018-03-28T10:06:23.725Z,17.30
2018-03-28T10:07:23.643Z,18.20
2018-03-28T10:09:16.984Z,17.90
2018-03-28T10:10:16.836Z,17.90
2018-03-28T10:12:10.098Z,17.90
2018-03-28T10:13:10.031Z,17.40
2018-03-28T10:15:03.330Z,17.60
2018-03-28T10:16:03.247Z,17.90
2018-03-28T10:17:56.509Z,18.30
2018-03-28T10:18:56.443Z,18.20
2018-03-28T10:20:49.836Z,17.70
2018-03-28T10:21:49.692Z,17.20
2018-03-28T10:23:42.904Z,17.20
2018-03-28T10:24:42.829Z,17.10
2018-03-28T10:26:36.109Z,17.50
2018-03-28T10:27:36.025Z,17.80
2018-03-28T10:29:29.330Z,17.50
2018-03-28T10:30:29.246Z,17.90
2018-03-28T10:32:22.505Z,19.10
2018-03-28T10:33:22.440Z,17.90
2018-03-28T10:35:15.836Z,17.40
2018-03-28T10:36:15.634Z,17.90
2018-03-28T10:38:09.014Z,17.30
2018-03-28T10:39:08.828Z,17.00
2018-03-28T10:41:02.223Z,17.50
2018-03-28T10:42:02.028Z,17.60
2018-03-28T10:43:55.312Z,17.10
2018-03-28T10:44:55.247Z,17.40
2018-03-28T10:46:48.524Z,17.30
2018-03-28T10:47:48.437Z,17.60
2018-03-28T10:49:42.724Z,17.90
2018-03-28T10:50:42.638Z,17.80
2018-03-28T10:52:35.971Z,16.70
2018-03-28T10:53:35.833Z,17.00
2018-03-28T10:55:29.230Z,16.40
2018-03-28T10:56:29.028Z,16.70
2018-03-28T10:58:22.289Z,16.00
2018-03-28T10:59:22.224Z,17.20
2018-03-28T11:01:15.501Z,16.40
2018-03-28T11:02:15.419Z,15.40
2018-03-28T11:04:08.681Z,16.40
2018-03-28T11:05:08.614Z,15.60
2018-03-28T11:07:02.014Z,16.20
2018-03-28T11:08:01.812Z,15.90
2018-03-28T11:09:55.180Z,15.30
2018-03-28T11:10:55.006Z,15.50
2018-03-28T11:12:48.278Z,15.00
2018-03-28T11:13:48.213Z,15.50
2018-03-28T11:15:41.493Z,14.80
2018-03-28T11:16:41.413Z,14.80
2018-03-28T11:18:34.682Z,15.20
2018-03-28T11:19:34.619Z,15.50
2018-03-28T11:21:27.904Z,15.80
2018-03-28T11:22:27.822Z,15.10
2018-03-28T11:24:21.197Z,15.10
2018-03-28T11:25:21.023Z,14.80
2018-03-28T11:27:14.303Z,15.80
2018-03-28T11:28:14.218Z,14.80
2018-03-28T11:30:07.507Z,14.80
2018-03-28T11:31:07.422Z,15.10
2018-03-28T11:33:00.700Z,16.00
2018-03-28T11:34:00.625Z,15.20
2018-03-28T11:35:53.923Z,14.10
2018-03-28T11:36:53.838Z,14.60
2018-03-28T11:38:48.111Z,16.20
2018-03-28T11:39:48.042Z,16.50
2018-03-28T11:41:42.329Z,16.00
2018-03-28T11:42:42.252Z,15.80
2018-03-28T11:44:35.522Z,15.60
2018-03-28T11:45:35.449Z,15.80
2018-03-28T11:47:28.845Z,15.10
2018-03-28T11:48:28.644Z,15.70
2018-03-28T11:50:22.040Z,16.20
2018-03-28T11:51:21.849Z,15.90
2018-03-28T11:53:15.227Z,16.30
2018-03-28T11:54:15.051Z,16.80
2018-03-28T11:56:08.340Z,16.60
2018-03-28T11:57:08.252Z,15.30
2018-03-28T11:59:01.661Z,15.30
2018-03-28T12:00:01.459Z,17.40
2018-03-28T12:01:54.748Z,17.10
2018-03-28T12:02:54.661Z,16.10
2018-03-28T12:04:47.934Z,16.20
2018-03-28T12:05:47.868Z,17.40
2018-03-28T12:07:41.265Z,16.80
2018-03-28T12:08:41.077Z,17.90
2018-03-28T12:10:34.472Z,17.30
2018-03-28T12:11:34.352Z,17.30
2018-03-28T12:13:27.549Z,17.30
2018-03-28T12:14:27.482Z,17.00
2018-03-28T12:16:20.768Z,18.20
2018-03-28T12:17:20.682Z,17.80
2018-03-28T12:19:13.954Z,18.60
2018-03-28T12:20:13.888Z,25.00
2018-03-28T12:22:07.170Z,19.40
2018-03-28T12:23:07.086Z,18.30
2018-03-28T12:25:00.364Z,18.20
2018-03-28T12:26:00.300Z,19.00
2018-03-28T12:27:53.599Z,18.60
2018-03-28T12:28:53.496Z,19.30
2018-03-28T12:30:46.890Z,18.70
2018-03-28T12:31:46.699Z,19.00
2018-03-28T12:33:40.075Z,20.60
2018-03-28T12:34:39.893Z,20.70
2018-03-28T12:36:33.289Z,21.40
2018-03-28T12:37:33.095Z,20.90
2018-03-28T12:39:26.387Z,19.70
2018-03-28T12:40:26.299Z,21.00
2018-03-28T12:42:19.567Z,20.80
2018-03-28T12:43:19.502Z,21.70
2018-03-28T12:45:12.792Z,21.20
2018-03-28T12:46:12.705Z,21.20
2018-03-28T12:48:06.080Z,22.60
2018-03-28T12:49:05.906Z,23.40
2018-03-28T12:50:59.300Z,23.00
2018-03-28T12:51:59.107Z,26.00
2018-03-28T12:53:52.375Z,23.90
2018-03-28T12:54:52.309Z,23.90
2018-03-28T12:56:45.602Z,24.30
2018-03-28T12:57:45.502Z,23.20
2018-03-28T12:59:38.766Z,23.90
2018-03-28T13:00:38.700Z,25.30
2018-03-28T13:02:32.146Z,25.40
2018-03-28T13:03:31.900Z,25.90
2018-03-28T13:05:25.278Z,27.00
2018-03-28T13:06:25.100Z,28.10
2018-03-28T13:08:18.495Z,29.10
2018-03-28T13:09:18.301Z,29.50
2018-03-28T13:11:11.693Z,32.80
2018-03-28T13:12:11.499Z,32.60
2018-03-28T13:14:04.759Z,33.40
2018-03-28T13:15:04.695Z,34.70
2018-03-28T13:16:58.092Z,35.80
2018-03-28T13:17:57.901Z,36.50
2018-03-28T13:19:51.167Z,37.10
2018-03-28T13:20:51.098Z,36.40
2018-03-28T13:22:44.384Z,37.40
2018-03-28T13:23:44.297Z,38.80
2018-03-28T13:25:37.673Z,40.90
2018-03-28T13:26:37.496Z,38.00
2018-03-28T13:28:30.889Z,38.50
2018-03-28T13:29:30.696Z,38.80
2018-03-28T13:31:23.978Z,35.00
2018-03-28T13:32:23.894Z,33.70
2018-03-28T13:34:17.157Z,33.50
2018-03-28T13:35:17.091Z,31.70
2018-03-28T13:37:10.372Z,30.50
2018-03-28T13:38:10.286Z,31.00
2018-03-28T13:40:03.550Z,33.20
2018-03-28T13:41:03.480Z,29.90
2018-03-28T13:42:56.764Z,32.40
2018-03-28T13:43:56.676Z,30.80
2018-03-28T13:45:49.973Z,32.30
2018-03-28T13:46:49.902Z,31.60
2018-03-28T13:48:43.293Z,28.90
2018-03-28T13:49:43.098Z,29.70
2018-03-28T13:51:36.489Z,29.10
2018-03-28T13:52:36.294Z,28.70
2018-03-28T13:54:29.674Z,27.70
2018-03-28T13:55:29.489Z,29.80
2018-03-28T13:57:22.763Z,32.10
2018-03-28T13:58:22.677Z,30.40
2018-03-28T14:00:15.944Z,27.70
2018-03-28T14:01:15.871Z,30.20
2018-03-28T14:03:09.155Z,27.90
2018-03-28T14:04:09.067Z,27.10
2018-03-28T14:06:02.335Z,27.20
2018-03-28T14:07:02.263Z,27.60
2018-03-28T14:08:55.565Z,27.50
2018-03-28T14:09:55.477Z,28.00
2018-03-28T14:11:48.877Z,30.20
2018-03-28T14:12:48.672Z,30.50
2018-03-28T14:14:41.939Z,28.90
2018-03-28T14:15:41.875Z,29.90
2018-03-28T14:17:35.153Z,31.40
2018-03-28T14:18:35.063Z,28.60
2018-03-28T14:20:28.434Z,29.70
2018-03-28T14:21:28.257Z,29.10
2018-03-28T14:23:21.649Z,30.40
2018-03-28T14:24:21.451Z,30.70
2018-03-28T14:26:14.713Z,31.50
2018-03-28T14:27:14.643Z,30.50
2018-03-28T14:29:07.926Z,30.20
2018-03-28T14:30:07.840Z,31.60
2018-03-28T14:32:01.231Z,33.40
2018-03-28T14:33:01.033Z,32.10
2018-03-28T14:34:54.296Z,33.10
2018-03-28T14:35:54.228Z,32.50
2018-03-28T14:37:47.508Z,33.50
2018-03-28T14:38:47.422Z,32.60
2018-03-28T14:40:40.685Z,24.20
2018-03-28T14:41:40.615Z,24.50
2018-03-28T14:43:33.897Z,27.90
2018-03-28T14:44:33.811Z,28.30
2018-03-28T14:46:27.096Z,30.30
2018-03-28T14:47:27.028Z,28.00
2018-03-28T14:49:20.304Z,24.20
2018-03-28T14:50:20.219Z,25.10
2018-03-28T14:52:13.498Z,26.30
2018-03-28T14:53:13.411Z,21.30
2018-03-28T14:55:06.673Z,20.90
2018-03-28T14:56:06.604Z,20.70
2018-03-28T14:57:59.886Z,20.60
2018-03-28T14:58:59.800Z,19.30
2018-03-28T15:00:53.064Z,18.20
2018-03-28T15:01:52.995Z,20.10
2018-03-28T15:03:46.274Z,19.80
2018-03-28T15:04:46.187Z,20.10
2018-03-28T15:06:39.442Z,20.20
2018-03-28T15:07:39.434Z,20.30
2018-03-28T15:09:32.654Z,19.80
2018-03-28T15:10:32.566Z,20.60
2018-03-28T15:12:25.849Z,20.60
2018-03-28T15:13:25.759Z,21.20
2018-03-28T15:15:19.030Z,20.10
2018-03-28T15:16:18.954Z,18.80
2018-03-28T15:18:12.345Z,19.00
2018-03-28T15:19:12.154Z,19.20
2018-03-28T15:21:05.521Z,21.40
2018-03-28T15:22:05.342Z,21.30
2018-03-28T15:23:58.734Z,19.50
2018-03-28T15:24:58.536Z,18.90
2018-03-28T15:26:51.809Z,18.20
2018-03-28T15:27:51.720Z,19.30
2018-03-28T15:29:45.000Z,20.30
2018-03-28T15:30:44.913Z,20.10
2018-03-28T15:32:38.245Z,21.60
2018-03-28T15:33:38.108Z,23.10
2018-03-28T15:35:31.479Z,24.60
2018-03-28T15:36:31.299Z,24.00
2018-03-28T15:38:24.582Z,22.30
2018-03-28T15:39:24.549Z,23.70
2018-03-28T15:41:17.769Z,23.40
2018-03-28T15:42:17.686Z,22.70
2018-03-28T15:44:11.078Z,21.90
2018-03-28T15:45:10.882Z,22.50
2018-03-28T15:47:04.134Z,21.00
2018-03-28T15:48:04.069Z,21.70
2018-03-28T15:49:57.343Z,20.50
2018-03-28T15:50:57.256Z,19.10
2018-03-28T15:52:50.535Z,22.20
2018-03-28T15:53:50.446Z,21.00
2018-03-28T15:55:43.818Z,20.40
2018-03-28T15:56:43.644Z,19.50
2018-03-28T15:58:36.928Z,21.10
2018-03-28T15:59:36.837Z,19.70
2018-03-28T16:01:30.102Z,18.60
2018-03-28T16:02:30.031Z,19.70
2018-03-28T16:04:23.327Z,17.80
2018-03-28T16:05:23.240Z,18.10
2018-03-28T16:07:16.523Z,19.00
2018-03-28T16:08:16.423Z,17.70
2018-03-28T16:10:09.686Z,18.00
2018-03-28T16:11:09.619Z,18.10
2018-03-28T16:13:02.932Z,20.20
2018-03-28T16:14:02.884Z,18.60
2018-03-28T16:15:56.203Z,16.40
2018-03-28T16:16:56.022Z,16.00
2018-03-28T16:18:49.325Z,16.50
2018-03-28T16:19:49.235Z,17.70
2018-03-28T16:21:42.497Z,19.40
2018-03-28T16:22:42.427Z,19.20
2018-03-28T16:24:35.706Z,18.20
2018-03-28T16:25:35.621Z,18.70
2018-03-28T16:27:28.900Z,18.60
2018-03-28T16:28:28.795Z,18.60
2018-03-28T16:30:22.062Z,16.70
2018-03-28T16:31:22.004Z,16.00
2018-03-28T16:33:15.381Z,16.50
2018-03-28T16:34:15.244Z,15.90
2018-03-28T16:36:08.506Z,16.10
2018-03-28T16:37:08.431Z,15.80
2018-03-28T16:39:01.709Z,14.90
2018-03-28T16:40:01.621Z,15.50
2018-03-28T16:41:54.881Z,14.90
2018-03-28T16:42:54.810Z,15.20
2018-03-28T16:44:48.089Z,13.40
2018-03-28T16:45:48.001Z,14.40
2018-03-28T16:47:41.373Z,13.30
2018-03-28T16:48:41.245Z,13.00
2018-03-28T16:50:34.627Z,13.20
2018-03-28T16:51:34.430Z,12.40
2018-03-28T16:53:27.802Z,13.60
2018-03-28T16:54:27.623Z,13.90
2018-03-28T16:56:20.904Z,9.80
2018-03-28T16:57:20.815Z,11.60
2018-03-28T16:59:14.094Z,12.10
2018-03-28T17:00:14.007Z,11.80
2018-03-28T17:02:07.357Z,11.70
2018-03-28T17:03:07.244Z,13.20
2018-03-28T17:05:00.518Z,13.60
2018-03-28T17:06:00.428Z,12.80
2018-03-28T17:07:53.807Z,13.90
2018-03-28T17:08:53.649Z,13.50
2018-03-28T17:10:46.901Z,11.70
2018-03-28T17:11:46.814Z,10.70
2018-03-28T17:13:40.076Z,10.90
2018-03-28T17:14:40.007Z,10.50
2018-03-28T17:16:33.396Z,9.40
2018-03-28T17:17:33.190Z,9.50
2018-03-28T17:19:26.488Z,10.20
2018-03-28T17:20:26.382Z,10.30
2018-03-28T17:22:19.774Z,13.40
2018-03-28T17:23:19.577Z,12.50
2018-03-28T17:25:12.836Z,12.10
2018-03-28T17:26:12.767Z,11.70
2018-03-28T17:28:06.048Z,8.80
2018-03-28T17:29:05.959Z,9.00
2018-03-28T17:30:59.241Z,7.50
2018-03-28T17:31:59.150Z,7.60
2018-03-28T17:33:52.412Z,7.20
2018-03-28T17:34:52.343Z,8.40
2018-03-28T17:36:45.736Z,7.30
2018-03-28T17:37:45.540Z,7.20
2018-03-28T17:39:38.800Z,5.80
2018-03-28T17:40:38.731Z,6.00
2018-03-28T17:42:32.009Z,7.80
2018-03-28T17:43:31.923Z,6.90
2018-03-28T17:45:25.182Z,4.80
2018-03-28T17:46:25.120Z,5.20
2018-03-28T17:48:18.502Z,7.30
2018-03-28T17:49:18.302Z,6.20
2018-03-28T17:51:11.563Z,5.70
2018-03-28T17:52:11.496Z,5.60
2018-03-28T17:54:04.772Z,5.90
2018-03-28T17:55:04.682Z,6.60
2018-03-28T17:56:58.001Z,6.60
2018-03-28T17:57:57.897Z,7.40
2018-03-28T17:59:51.269Z,6.70
2018-03-28T18:00:51.089Z,6.80
2018-03-28T18:02:44.366Z,5.90
2018-03-28T18:03:44.278Z,6.30
2018-03-28T18:05:37.539Z,6.90
2018-03-28T18:06:37.470Z,7.00
2018-03-28T18:08:30.751Z,7.20
2018-03-28T18:09:30.664Z,6.20
2018-03-28T18:11:23.923Z,7.00
2018-03-28T18:12:23.861Z,7.10
2018-03-28T18:14:17.131Z,6.50
2018-03-28T18:15:17.043Z,7.40
2018-03-28T18:17:10.307Z,7.80
2018-03-28T18:18:10.224Z,7.20
2018-03-28T18:20:03.504Z,6.90
2018-03-28T18:21:03.420Z,6.60
2018-03-28T18:22:56.693Z,6.00
2018-03-28T18:23:56.606Z,6.90
2018-03-28T18:25:49.867Z,7.40
2018-03-28T18:26:49.796Z,7.30
2018-03-28T18:28:43.086Z,7.50
2018-03-28T18:29:42.986Z,7.80
2018-03-28T18:31:36.246Z,7.10
2018-03-28T18:32:36.173Z,6.60
2018-03-28T18:34:29.455Z,7.00
2018-03-28T18:35:29.367Z,7.00
2018-03-28T18:37:22.633Z,7.50